Time;durP1;ratioP1;P1;durP2;ratioP2;P2;SDS_P1;SDS_P2;PMS_P1;PMS_P2;Temp;Humidity;BMP_temperature;BMP_pressure;BME280_temperature;BME280_humidity;BME280_pressure;Samples;Min_cycle;Max_cycle;Signal;HPM_P1;HPM_P2
2022/04/07 00:02:14;;;;;;;30.23;19.82;;;24.70;76.00;;;;;;1916792;73;21189;-80
2022/04/07 00:04:47;;;;;;;33.25;21.17;;;24.70;76.20;;;;;;1877777;74;21159;-77
2022/04/07 00:07:18;;;;;;;23.27;16.23;;;24.70;77.10;;;;;;1899614;74;21658;-78
2022/04/07 00:09:49;;;;;;;21.60;15.88;;;24.70;77.30;;;;;;1893337;74;21761;-81
2022/04/07 00:12:19;;;;;;;22.85;14.40;;;24.70;77.90;;;;;;1902232;74;21105;-84
2022/04/07 00:14:50;;;;;;;19.67;14.33;;;24.70;77.80;;;;;;1896839;74;21076;-80
2022/04/07 00:17:23;;;;;;;21.48;15.38;;;24.70;77.50;;;;;;1891193;74;21437;-79
2022/04/07 00:19:54;;;;;;;25.72;17.15;;;24.70;77.00;;;;;;1891212;74;21159;-80
2022/04/07 00:22:25;;;;;;;26.40;16.67;;;24.70;76.90;;;;;;1876512;75;21048;-79
2022/04/07 00:24:57;;;;;;;23.42;14.73;;;24.70;76.60;;;;;;1900062;73;21084;-79
2022/04/07 00:27:29;;;;;;;26.93;17.05;;;24.60;75.40;;;;;;1889951;73;21095;-81
2022/04/07 00:30:00;;;;;;;20.32;15.50;;;24.60;75.30;;;;;;1918252;73;21173;-78
2022/04/07 00:32:31;;;;;;;22.05;15.25;;;24.60;75.50;;;;;;1847038;76;21541;-78
2022/04/07 00:35:04;;;;;;;25.32;16.52;;;24.60;75.80;;;;;;1863608;76;21061;-77
2022/04/07 00:37:35;;;;;;;25.27;17.90;;;24.60;76.20;;;;;;1860038;76;21171;-77
2022/04/07 00:40:08;;;;;;;23.12;15.98;;;24.60;76.50;;;;;;1861867;75;21068;-78
2022/04/07 00:42:41;;;;;;;21.75;15.20;;;24.60;76.10;;;;;;1879106;75;21218;-79
2022/04/07 00:45:12;;;;;;;18.35;13.40;;;24.60;75.90;;;;;;1882755;75;21131;-80
2022/04/07 00:47:44;;;;;;;20.43;14.15;;;24.70;75.90;;;;;;1882581;75;21089;-77
2022/04/07 00:50:17;;;;;;;21.95;14.45;;;24.70;75.30;;;;;;1890496;75;21632;-77
2022/04/07 00:52:50;;;;;;;21.57;15.08;;;24.70;75.50;;;;;;1891310;75;21089;-77
2022/04/07 00:55:26;;;;;;;22.15;15.03;;;24.70;75.20;;;;;;1860181;75;21234;-76
2022/04/07 00:57:57;;;;;;;20.72;13.75;;;24.80;75.50;;;;;;1874235;76;21085;-75
2022/04/07 01:00:28;;;;;;;20.65;14.38;;;24.80;74.90;;;;;;1853946;76;21116;-77
2022/04/07 01:02:59;;;;;;;20.90;13.78;;;24.80;73.50;;;;;;1846487;76;21227;-77
2022/04/07 01:05:31;;;;;;;19.57;13.88;;;24.90;72.70;;;;;;1869236;76;21560;-76
2022/04/07 01:08:02;;;;;;;21.30;15.40;;;24.90;72.20;;;;;;1908577;75;21898;-77
2022/04/07 01:10:33;;;;;;;23.92;16.00;;;24.90;72.60;;;;;;1893729;74;21119;-76
2022/04/07 01:13:05;;;;;;;20.97;15.58;;;24.90;73.00;;;;;;1867351;75;21082;-77
2022/04/07 01:15:35;;;;;;;23.30;16.37;;;25.00;73.80;;;;;;1901834;74;21264;-77
2022/04/07 01:18:07;;;;;;;22.73;15.78;;;25.00;74.30;;;;;;1905940;74;21068;-76
2022/04/07 01:20:39;;;;;;;21.95;15.85;;;25.00;74.50;;;;;;1867022;75;21140;-76
2022/04/07 01:23:10;;;;;;;21.07;15.88;;;25.10;74.10;;;;;;1863230;75;21155;-76
2022/04/07 01:25:42;;;;;;;21.33;15.20;;;25.20;75.10;;;;;;1865517;75;21600;-75
2022/04/07 01:28:13;;;;;;;21.20;14.95;;;25.20;73.50;;;;;;1852007;75;21175;-76
2022/04/07 01:30:44;;;;;;;23.10;15.65;;;25.20;73.10;;;;;;1907203;74;21529;-77
2022/04/07 01:33:17;;;;;;;24.43;15.90;;;25.20;72.80;;;;;;1859831;76;21657;-76
2022/04/07 01:35:48;;;;;;;21.45;16.60;;;25.30;72.60;;;;;;1874372;75;21076;-76
2022/04/07 01:38:20;;;;;;;23.18;16.30;;;25.30;72.20;;;;;;1858332;76;21225;-76
2022/04/07 01:40:51;;;;;;;20.25;14.87;;;25.30;71.80;;;;;;1864504;75;21120;-77
2022/04/07 01:43:22;;;;;;;22.65;16.23;;;25.30;71.70;;;;;;1870366;75;21116;-77
2022/04/07 01:45:54;;;;;;;24.47;16.12;;;25.50;71.60;;;;;;1854794;76;21509;-75
2022/04/07 01:48:25;;;;;;;23.87;16.05;;;25.50;71.20;;;;;;1870831;76;21532;-73
2022/04/07 01:50:57;;;;;;;40.45;17.75;;;25.60;71.50;;;;;;1866735;75;21188;-72
2022/04/07 01:53:29;;;;;;;37.48;17.17;;;25.60;71.30;;;;;;1907278;75;21655;-71
2022/04/07 01:56:00;;;;;;;24.27;16.55;;;25.70;70.30;;;;;;1908178;75;21080;-72
2022/04/07 01:58:32;;;;;;;22.02;16.35;;;25.70;70.40;;;;;;1908547;75;21182;-71
2022/04/07 02:01:04;;;;;;;20.00;16.52;;;25.70;70.30;;;;;;1908802;75;21544;-71
2022/04/07 02:03:35;;;;;;;21.80;15.95;;;25.80;70.20;;;;;;1911723;75;21130;-72
2022/04/07 02:06:09;;;;;;;22.58;15.83;;;25.80;70.80;;;;;;1903243;74;21191;-71
2022/04/07 02:08:40;;;;;;;25.12;17.05;;;25.90;71.10;;;;;;1901276;75;21147;-71
2022/04/07 02:11:15;;;;;;;26.42;16.97;;;25.90;69.40;;;;;;1904182;75;21244;-70
2022/04/07 02:13:46;;;;;;;23.80;16.77;;;25.90;69.00;;;;;;1869105;76;21623;-70
2022/04/07 02:16:20;;;;;;;22.75;17.50;;;26.00;69.30;;;;;;1876091;76;21697;-71
2022/04/07 02:18:50;;;;;;;20.55;16.90;;;26.00;67.90;;;;;;1873294;76;21136;-71
2022/04/07 02:21:21;;;;;;;22.60;17.05;;;26.00;67.80;;;;;;1892940;75;21167;-71
2022/04/07 02:23:52;;;;;;;25.77;18.55;;;26.10;68.20;;;;;;1907253;74;21552;-70
2022/04/07 02:26:23;;;;;;;22.48;16.55;;;26.10;68.80;;;;;;1905947;75;21069;-69
2022/04/07 02:28:54;;;;;;;24.45;17.90;;;26.20;68.90;;;;;;1903430;75;21092;-70
2022/04/07 02:31:25;;;;;;;31.07;19.35;;;26.30;68.30;;;;;;1896157;75;21154;-77
2022/04/07 02:33:56;;;;;;;29.32;20.20;;;26.40;67.30;;;;;;1912135;75;21084;-77
2022/04/07 02:36:27;;;;;;;26.15;18.65;;;26.50;67.20;;;;;;1909301;75;21120;-78
2022/04/07 02:38:59;;;;;;;26.75;20.00;;;26.60;67.20;;;;;;1876320;75;21512;-79
2022/04/07 02:41:31;;;;;;;28.00;20.12;;;26.70;65.20;;;;;;1875073;75;21076;-77
2022/04/07 02:44:02;;;;;;;26.00;20.45;;;26.70;64.70;;;;;;1876228;76;21132;-77
2022/04/07 02:46:33;;;;;;;26.00;19.27;;;26.80;64.70;;;;;;1852101;76;21104;-73
2022/04/07 02:49:05;;;;;;;30.15;20.52;;;26.90;65.50;;;;;;1853240;76;21080;-70
2022/04/07 02:51:36;;;;;;;31.30;21.15;;;27.00;63.50;;;;;;1867679;75;21174;-71
2022/04/07 02:54:07;;;;;;;24.85;21.00;;;27.00;63.70;;;;;;1905692;73;21117;-71
2022/04/07 02:56:39;;;;;;;28.67;23.02;;;27.10;63.30;;;;;;1906534;75;21615;-70
2022/04/07 02:59:10;;;;;;;29.72;22.07;;;27.20;63.00;;;;;;1895303;75;21151;-70
2022/04/07 03:01:42;;;;;;;26.77;23.02;;;27.30;60.50;;;;;;1898465;75;21119;-69
2022/04/07 03:04:13;;;;;;;26.97;22.52;;;27.40;59.10;;;;;;1894272;74;21102;-71
2022/04/07 03:06:44;;;;;;;28.30;22.25;;;27.50;59.10;;;;;;1861507;76;21124;-70
2022/04/07 03:09:14;;;;;;;34.60;22.85;;;27.50;59.90;;;;;;1923409;73;21209;-70
2022/04/07 03:11:48;;;;;;;32.45;22.45;;;27.60;59.50;;;;;;1886324;75;21697;-72
2022/04/07 03:14:18;;;;;;;27.77;22.10;;;27.70;58.50;;;;;;1892131;75;21681;-71
2022/04/07 03:16:49;;;;;;;32.42;22.67;;;27.70;58.50;;;;;;1857094;76;21182;-71
2022/04/07 03:19:20;;;;;;;30.27;23.35;;;27.80;58.60;;;;;;1882885;75;21143;-72
2022/04/07 03:21:51;;;;;;;31.45;22.30;;;27.80;57.80;;;;;;1876421;75;21077;-70
2022/04/07 03:24:22;;;;;;;31.85;22.80;;;27.90;58.50;;;;;;1896521;73;21053;-71
2022/04/07 03:26:55;;;;;;;35.33;24.25;;;27.90;58.80;;;;;;1878904;76;21154;-70
2022/04/07 03:29:28;;;;;;;26.77;22.52;;;28.00;58.90;;;;;;1911510;75;21528;-71
2022/04/07 03:31:58;;;;;;;39.75;23.32;;;28.00;58.70;;;;;;1908435;75;21103;-70
2022/04/07 03:34:30;;;;;;;28.45;22.55;;;28.10;57.80;;;;;;1894745;75;21633;-70
2022/04/07 03:37:01;;;;;;;31.07;23.77;;;28.20;57.30;;;;;;1908763;75;21574;-71
2022/04/07 03:39:35;;;;;;;29.90;23.42;;;28.30;57.10;;;;;;1886131;74;21103;-83
2022/04/07 03:42:06;;;;;;;33.25;23.90;;;28.40;57.00;;;;;;1913704;75;21641;-83
2022/04/07 03:44:37;;;;;;;28.80;22.55;;;28.40;56.80;;;;;;1917698;75;21108;-82
2022/04/07 03:47:08;;;;;;;31.12;23.22;;;28.60;57.30;;;;;;1910937;75;21088;-82
2022/04/07 03:49:39;;;;;;;33.50;24.60;;;28.60;56.60;;;;;;1875992;76;21178;-82
2022/04/07 03:52:10;;;;;;;31.12;23.07;;;28.70;56.90;;;;;;1876346;76;21163;-80
2022/04/07 03:54:41;;;;;;;32.40;23.47;;;28.80;56.50;;;;;;1875690;76;21154;-82
2022/04/07 03:57:16;;;;;;;30.30;23.90;;;28.90;56.80;;;;;;1875862;76;21202;-82
2022/04/07 03:59:46;;;;;;;28.87;23.62;;;29.00;55.50;;;;;;1875253;75;21140;-82
2022/04/07 04:02:18;;;;;;;26.97;21.65;;;29.10;57.00;;;;;;1853245;76;21116;-83
2022/04/07 04:04:50;;;;;;;25.68;22.75;;;29.20;56.60;;;;;;1844300;76;21173;-81
2022/04/07 04:07:21;;;;;;;30.77;24.27;;;29.20;56.70;;;;;;1868317;76;21182;-82
2022/04/07 04:09:52;;;;;;;30.08;24.32;;;29.20;56.80;;;;;;1848138;76;21167;-83
2022/04/07 04:12:23;;;;;;;29.32;24.15;;;29.20;57.40;;;;;;1857808;76;21149;-82
2022/04/07 04:14:54;;;;;;;30.15;24.72;;;29.20;56.50;;;;;;1852578;76;21132;-84
2022/04/07 04:17:27;;;;;;;32.08;24.80;;;29.30;56.40;;;;;;1878443;76;21120;-84
2022/04/07 04:19:57;;;;;;;31.68;24.60;;;29.30;56.70;;;;;;1880553;76;21085;-84
2022/04/07 04:22:31;;;;;;;30.32;24.30;;;29.40;56.10;;;;;;1880308;76;21080;-82
2022/04/07 04:25:02;;;;;;;30.82;24.37;;;29.40;56.00;;;;;;1880173;76;21210;-84
2022/04/07 04:27:34;;;;;;;27.05;24.15;;;29.50;54.80;;;;;;1876067;76;21230;-82
2022/04/07 04:30:05;;;;;;;30.77;24.45;;;29.50;55.50;;;;;;1910619;75;21053;-83
2022/04/07 04:32:36;;;;;;;28.62;24.60;;;29.50;55.30;;;;;;1863912;76;21210;-82
2022/04/07 04:35:08;;;;;;;31.40;26.02;;;29.50;55.10;;;;;;1875397;76;21140;-83
2022/04/07 04:37:40;;;;;;;30.75;25.17;;;29.50;55.80;;;;;;1875918;76;21128;-84
2022/04/07 04:40:11;;;;;;;34.55;25.52;;;29.50;55.20;;;;;;1875245;76;21140;-83
2022/04/07 04:42:43;;;;;;;33.02;25.55;;;29.60;55.10;;;;;;1873546;75;21128;-82
2022/04/07 04:45:14;;;;;;;39.67;26.97;;;29.70;54.70;;;;;;1904884;75;21085;-82
2022/04/07 04:47:45;;;;;;;33.58;26.33;;;29.80;54.30;;;;;;1913699;72;21109;-82
2022/04/07 04:50:17;;;;;;;33.08;26.23;;;29.80;54.90;;;;;;1911024;74;21134;-80
2022/04/07 04:52:53;;;;;;;33.67;24.85;;;29.90;53.90;;;;;;1910499;74;21089;-81
2022/04/07 04:55:24;;;;;;;28.75;25.65;;;30.00;53.80;;;;;;1909041;75;21209;-81
2022/04/07 04:57:56;;;;;;;34.70;25.43;;;30.00;53.50;;;;;;1914945;75;21592;-80
2022/04/07 05:00:27;;;;;;;30.80;25.08;;;30.10;53.20;;;;;;1907536;75;21663;-82
2022/04/07 05:02:58;;;;;;;29.87;25.80;;;30.20;53.20;;;;;;1907290;75;21105;-81
2022/04/07 05:05:32;;;;;;;32.25;25.48;;;30.20;52.60;;;;;;1881364;76;21193;-82
2022/04/07 05:08:03;;;;;;;30.62;25.17;;;30.30;51.40;;;;;;1881434;76;21221;-82
2022/04/07 05:10:35;;;;;;;33.55;25.95;;;30.30;50.50;;;;;;1881639;76;21096;-82
2022/04/07 05:13:06;;;;;;;27.93;24.92;;;30.30;51.10;;;;;;1882251;76;21205;-82
2022/04/07 05:15:39;;;;;;;31.95;25.97;;;30.40;51.50;;;;;;1884613;75;21569;-82
2022/04/07 05:18:10;;;;;;;32.53;26.00;;;30.40;50.70;;;;;;1882831;76;21101;-83
2022/04/07 05:20:41;;;;;;;32.05;25.05;;;30.50;51.60;;;;;;1882750;76;21141;-82
2022/04/07 05:23:13;;;;;;;31.75;25.25;;;30.50;51.30;;;;;;1903981;75;21163;-82
2022/04/07 05:25:45;;;;;;;31.07;25.37;;;30.70;51.30;;;;;;1916368;75;21107;-82
2022/04/07 05:28:16;;;;;;;36.93;25.25;;;30.80;49.90;;;;;;1917833;75;21181;-82
2022/04/07 05:30:47;;;;;;;33.35;25.62;;;30.80;49.80;;;;;;1888250;74;21430;-82
2022/04/07 05:33:17;;;;;;;30.00;26.42;;;30.80;49.40;;;;;;1883902;76;21205;-83
2022/04/07 05:35:52;;;;;;;31.65;26.17;;;30.80;50.00;;;;;;1893925;75;21122;-81
2022/04/07 05:38:23;;;;;;;32.40;25.77;;;30.80;50.10;;;;;;1915961;74;21466;-84
2022/04/07 05:40:54;;;;;;;27.67;24.70;;;30.80;49.80;;;;;;1914822;75;21080;-82
2022/04/07 05:43:25;;;;;;;35.00;25.62;;;30.90;50.40;;;;;;1913333;75;21576;-81
2022/04/07 05:45:56;;;;;;;28.80;25.27;;;31.00;50.00;;;;;;1912271;74;21136;-82
2022/04/07 05:48:27;;;;;;;30.12;24.85;;;31.00;49.60;;;;;;1870749;76;21155;-81
2022/04/07 05:50:58;;;;;;;35.40;25.88;;;31.00;50.40;;;;;;1863743;76;21222;-76
2022/04/07 05:53:32;;;;;;;31.12;25.82;;;31.10;49.10;;;;;;1894172;75;21579;-73
2022/04/07 05:56:03;;;;;;;32.45;25.68;;;31.10;49.30;;;;;;1904755;75;21512;-75
2022/04/07 05:58:34;;;;;;;29.52;24.37;;;31.00;48.90;;;;;;1905130;73;21555;-72
2022/04/07 06:01:05;;;;;;;31.17;26.50;;;31.00;48.50;;;;;;1903724;75;21512;-71
2022/04/07 06:03:36;;;;;;;31.42;24.80;;;30.90;49.20;;;;;;1907508;73;21150;-80
2022/04/07 06:06:07;;;;;;;35.85;27.32;;;31.00;48.90;;;;;;1890412;75;21105;-82
2022/04/07 06:08:38;;;;;;;32.08;26.23;;;31.10;49.10;;;;;;1904213;75;21067;-85
2022/04/07 06:11:09;;;;;;;31.30;24.60;;;31.00;49.90;;;;;;1855165;75;21132;-85
2022/04/07 06:13:40;;;;;;;29.05;24.72;;;31.00;48.90;;;;;;1915442;75;21095;-84
2022/04/07 06:16:11;;;;;;;30.05;25.43;;;31.10;49.30;;;;;;1916417;73;21122;-83
2022/04/07 06:18:42;;;;;;;32.38;25.72;;;31.10;49.10;;;;;;1911097;73;21091;-69
2022/04/07 06:21:16;;;;;;;34.33;26.25;;;31.20;49.20;;;;;;1897472;74;21100;-70
2022/04/07 06:23:47;;;;;;;29.75;26.52;;;31.20;48.80;;;;;;1912114;74;21238;-71
2022/04/07 06:26:19;;;;;;;29.57;25.45;;;31.20;48.70;;;;;;1908398;75;21571;-71
2022/04/07 06:28:51;;;;;;;32.80;26.87;;;31.20;49.70;;;;;;1914053;75;21718;-72
2022/04/07 06:31:21;;;;;;;29.40;25.80;;;31.20;49.70;;;;;;1899831;75;21103;-71
2022/04/07 06:33:53;;;;;;;31.17;24.98;;;31.10;49.30;;;;;;1895917;73;21162;-71
2022/04/07 06:36:26;;;;;;;31.37;26.00;;;31.10;49.30;;;;;;1889841;73;21577;-70
2022/04/07 06:38:57;;;;;;;30.40;25.37;;;31.20;48.80;;;;;;1901696;73;21548;-70
2022/04/07 06:41:28;;;;;;;32.15;26.68;;;31.20;48.90;;;;;;1874271;76;21265;-71
2022/04/07 06:44:00;;;;;;;32.23;26.55;;;31.20;49.50;;;;;;1857469;76;22147;-70
2022/04/07 06:46:32;;;;;;;33.98;27.15;;;31.20;49.40;;;;;;1857696;76;21729;-70
2022/04/07 06:49:03;;;;;;;31.05;27.10;;;31.10;49.30;;;;;;1874758;76;21681;-70
2022/04/07 06:51:34;;;;;;;33.23;27.05;;;31.20;49.00;;;;;;1850963;76;21606;-69
2022/04/07 06:54:06;;;;;;;33.02;26.60;;;31.10;48.90;;;;;;1880819;74;21652;-70
2022/04/07 06:56:37;;;;;;;29.27;25.95;;;31.10;49.10;;;;;;1877374;75;21525;-70
2022/04/07 06:59:08;;;;;;;31.48;25.62;;;31.10;49.30;;;;;;1897797;75;21177;-70
2022/04/07 07:01:39;;;;;;;35.40;26.50;;;31.10;49.60;;;;;;1892243;76;21536;-70
2022/04/07 07:04:10;;;;;;;33.35;26.70;;;31.10;49.60;;;;;;1912533;74;21130;-70
2022/04/07 07:06:41;;;;;;;33.08;26.57;;;31.10;49.80;;;;;;1906436;74;21548;-70
2022/04/07 07:09:12;;;;;;;29.23;25.82;;;31.10;49.70;;;;;;1925169;74;21084;-70
2022/04/07 07:11:43;;;;;;;37.30;26.97;;;31.10;49.90;;;;;;1914292;74;21262;-70
2022/04/07 07:14:14;;;;;;;30.50;26.68;;;31.20;50.80;;;;;;1910132;74;21095;-70
2022/04/07 07:16:45;;;;;;;30.77;25.37;;;31.20;50.30;;;;;;1899926;74;21145;-70
2022/04/07 07:19:40;;;;;;;31.97;25.90;;;31.10;50.40;;;;;;1922542;74;21185;-71
2022/04/07 07:22:10;;;;;;;28.05;24.63;;;31.20;49.70;;;;;;1860059;76;21097;-71
2022/04/07 07:24:41;;;;;;;31.48;25.95;;;31.10;48.80;;;;;;1869255;76;21140;-70
2022/04/07 07:27:13;;;;;;;29.67;26.48;;;31.20;49.40;;;;;;1884610;75;21164;-70
2022/04/07 07:29:44;;;;;;;30.68;25.43;;;31.10;49.70;;;;;;1907734;75;21042;-70
2022/04/07 07:32:15;;;;;;;31.60;25.82;;;31.10;49.70;;;;;;1890262;75;21483;-71
2022/04/07 07:34:45;;;;;;;33.20;25.95;;;31.10;49.60;;;;;;1872417;75;21107;-71
2022/04/07 07:37:18;;;;;;;32.15;25.37;;;31.10;49.70;;;;;;1896625;75;21113;-73
2022/04/07 07:39:50;;;;;;;31.05;24.95;;;31.10;49.60;;;;;;1905035;73;21089;-73
2022/04/07 07:42:21;;;;;;;34.70;26.02;;;31.10;49.90;;;;;;1852589;76;21147;-73
2022/04/07 07:44:52;;;;;;;34.88;26.10;;;31.10;48.80;;;;;;1898384;75;21078;-72
2022/04/07 07:47:23;;;;;;;31.70;25.37;;;31.10;49.20;;;;;;1893257;75;21628;-70
2022/04/07 07:49:57;;;;;;;30.27;25.00;;;31.10;50.10;;;;;;1882827;73;21129;-70
2022/04/07 07:52:28;;;;;;;28.73;24.77;;;31.10;49.50;;;;;;1850529;77;21604;-70
2022/04/07 07:54:59;;;;;;;27.30;23.98;;;31.10;49.70;;;;;;1855615;77;21147;-71
2022/04/07 07:57:31;;;;;;;34.53;24.87;;;31.10;49.40;;;;;;1850316;77;21090;-71
2022/04/07 08:00:03;;;;;;;29.37;24.50;;;31.10;50.00;;;;;;1915636;75;21587;-70
2022/04/07 08:02:36;;;;;;;33.13;25.08;;;31.10;49.30;;;;;;1890461;75;21766;-70
2022/04/07 08:05:07;;;;;;;29.55;25.48;;;31.20;49.00;;;;;;1903842;75;21093;-71
2022/04/07 08:07:41;;;;;;;31.40;25.05;;;31.20;48.80;;;;;;1872923;75;21166;-71
2022/04/07 08:10:12;;;;;;;35.08;26.35;;;31.20;49.30;;;;;;1858758;75;21123;-72
2022/04/07 08:12:42;;;;;;;32.83;26.00;;;31.10;49.10;;;;;;1889844;75;21272;-71
2022/04/07 08:15:16;;;;;;;35.13;24.45;;;31.10;49.50;;;;;;1858903;76;21505;-71
2022/04/07 08:17:47;;;;;;;31.35;25.30;;;31.10;49.60;;;;;;1875941;76;21176;-71
2022/04/07 08:20:18;;;;;;;29.85;25.17;;;31.10;49.60;;;;;;1913361;75;21157;-71
2022/04/07 08:22:48;;;;;;;29.57;24.23;;;31.10;49.70;;;;;;1914300;75;21215;-72
2022/04/07 08:25:20;;;;;;;29.35;25.25;;;31.20;49.70;;;;;;1882259;76;21692;-71
2022/04/07 08:27:54;;;;;;;31.40;24.87;;;31.20;49.50;;;;;;1905892;75;21552;-72
2022/04/07 08:30:25;;;;;;;35.40;24.95;;;31.10;49.70;;;;;;1916296;75;21113;-71
2022/04/07 08:32:56;;;;;;;31.75;24.67;;;31.20;49.30;;;;;;1898851;73;21549;-72
2022/04/07 08:35:27;;;;;;;31.40;24.55;;;31.10;49.60;;;;;;1897673;75;21139;-70
2022/04/07 08:37:58;;;;;;;27.80;24.37;;;31.10;49.90;;;;;;1889496;75;21141;-71
2022/04/07 08:40:31;;;;;;;32.53;24.45;;;31.10;49.80;;;;;;1894908;75;21135;-71
2022/04/07 08:43:02;;;;;;;33.63;25.88;;;31.10;49.90;;;;;;1904263;75;21628;-72
2022/04/07 08:45:35;;;;;;;30.65;25.80;;;31.10;49.70;;;;;;1891337;75;21124;-72
2022/04/07 08:48:08;;;;;;;31.30;24.82;;;31.00;49.90;;;;;;1895418;73;21085;-71
2022/04/07 08:50:41;;;;;;;32.48;25.48;;;31.10;50.30;;;;;;1905189;75;21090;-72
2022/04/07 08:53:14;;;;;;;30.80;24.95;;;31.10;49.80;;;;;;1891594;75;21140;-71
2022/04/07 08:55:45;;;;;;;37.88;24.47;;;31.10;50.10;;;;;;1896453;75;21070;-72
2022/04/07 08:58:17;;;;;;;30.80;25.77;;;31.10;49.30;;;;;;1894537;75;21164;-72
2022/04/07 09:00:49;;;;;;;31.68;24.85;;;31.10;49.50;;;;;;1887326;75;21151;-71
2022/04/07 09:03:19;;;;;;;33.00;25.60;;;31.00;49.40;;;;;;1904856;75;21168;-71
2022/04/07 09:05:53;;;;;;;33.08;24.85;;;30.90;49.60;;;;;;1897446;73;21152;-70
2022/04/07 09:08:26;;;;;;;32.35;25.88;;;30.90;49.60;;;;;;1888229;75;21061;-71
2022/04/07 09:10:59;;;;;;;33.40;24.70;;;30.90;49.80;;;;;;1885305;75;21270;-72
2022/04/07 09:13:34;;;;;;;32.90;25.80;;;30.90;49.40;;;;;;1895287;75;21112;-72
2022/04/07 09:16:13;;;;;;;28.60;24.85;;;30.90;49.60;;;;;;1896355;75;21173;-72
2022/04/07 09:18:40;;;;;;;29.57;25.45;;;30.80;49.80;;;;;;1902222;75;21693;-72
2022/04/07 09:21:13;;;;;;;30.55;25.35;;;30.80;49.70;;;;;;1904883;74;21632;-72
2022/04/07 09:23:45;;;;;;;32.95;24.67;;;30.80;49.90;;;;;;1896114;75;21085;-71
2022/04/07 09:26:17;;;;;;;33.42;25.30;;;30.70;50.20;;;;;;1891745;75;21188;-71
2022/04/07 09:28:49;;;;;;;30.60;26.42;;;30.70;50.00;;;;;;1893843;75;21206;-71
2022/04/07 09:31:22;;;;;;;37.58;27.48;;;30.70;49.90;;;;;;1908491;75;21140;-71
2022/04/07 09:33:55;;;;;;;31.12;25.92;;;30.60;50.00;;;;;;1887998;75;21132;-72
2022/04/07 09:36:27;;;;;;;30.20;26.05;;;30.70;49.90;;;;;;1889090;75;21099;-72
2022/04/07 09:39:02;;;;;;;33.00;25.60;;;30.60;49.90;;;;;;1869053;76;21597;-71
2022/04/07 09:41:35;;;;;;;30.17;24.77;;;30.60;50.00;;;;;;1895882;75;21066;-72
2022/04/07 09:44:10;;;;;;;30.17;25.80;;;30.60;50.30;;;;;;1906466;74;21137;-72
2022/04/07 09:46:41;;;;;;;30.88;25.37;;;30.60;50.50;;;;;;1900999;75;21144;-72
2022/04/07 09:49:14;;;;;;;34.48;27.37;;;30.60;50.90;;;;;;1894250;74;21198;-71
2022/04/07 09:51:51;;;;;;;33.18;26.40;;;30.60;51.00;;;;;;1887178;73;21679;-71
2022/04/07 09:54:19;;;;;;;28.57;25.48;;;30.60;50.80;;;;;;1884896;74;21147;-71
2022/04/07 09:56:51;;;;;;;35.88;26.52;;;30.50;50.60;;;;;;1913012;74;21136;-71
2022/04/07 09:59:24;;;;;;;32.70;26.57;;;30.50;50.00;;;;;;1889559;75;21426;-71
2022/04/07 10:01:56;;;;;;;34.35;26.07;;;30.50;49.70;;;;;;1903765;74;21659;-70
2022/04/07 10:04:28;;;;;;;31.27;25.77;;;30.50;50.40;;;;;;1890377;75;21168;-70
2022/04/07 10:07:04;;;;;;;31.87;26.68;;;30.50;50.00;;;;;;1898302;75;21521;-70
2022/04/07 10:09:36;;;;;;;34.35;27.32;;;30.50;50.20;;;;;;1908809;75;21264;-70
2022/04/07 10:12:08;;;;;;;37.10;27.77;;;30.40;50.30;;;;;;1877346;75;21643;-68
2022/04/07 10:14:40;;;;;;;30.80;27.27;;;30.40;50.50;;;;;;1863144;76;21088;-69
2022/04/07 10:17:14;;;;;;;32.73;26.17;;;30.40;50.90;;;;;;1870867;76;21157;-70
2022/04/07 10:19:47;;;;;;;32.90;26.48;;;30.40;51.10;;;;;;1873297;76;21092;-71
2022/04/07 10:22:21;;;;;;;32.00;26.27;;;30.40;51.30;;;;;;1863876;76;21598;-71
2022/04/07 10:24:54;;;;;;;32.98;26.30;;;30.40;51.30;;;;;;1861105;75;21628;-70
2022/04/07 10:27:29;;;;;;;32.00;27.37;;;30.30;51.00;;;;;;1935925;73;21142;-69
2022/04/07 10:30:03;;;;;;;28.80;25.52;;;30.30;51.10;;;;;;1891735;75;21135;-69
2022/04/07 10:32:35;;;;;;;30.82;25.85;;;30.20;51.30;;;;;;1938323;73;21151;-69
2022/04/07 10:35:08;;;;;;;29.18;25.92;;;30.20;51.60;;;;;;1941112;74;21104;-70
2022/04/07 10:37:44;;;;;;;29.67;26.23;;;30.20;51.70;;;;;;1924014;72;21199;-81
2022/04/07 10:40:16;;;;;;;34.43;27.20;;;30.20;52.00;;;;;;1931397;72;21796;-79
2022/04/07 10:42:49;;;;;;;37.73;28.38;;;30.20;52.10;;;;;;1845078;76;21175;-80
2022/04/07 10:45:23;;;;;;;40.73;26.37;;;30.10;52.30;;;;;;1841590;76;21035;-80
2022/04/07 10:47:57;;;;;;;31.62;25.68;;;30.10;52.00;;;;;;1851504;77;21057;-80
2022/04/07 10:50:28;;;;;;;33.63;26.42;;;30.10;52.00;;;;;;1939819;72;21112;-79
2022/04/07 10:53:02;;;;;;;31.95;27.67;;;30.10;52.30;;;;;;1932030;72;21182;-79
2022/04/07 10:55:44;;;;;;;34.78;27.70;;;30.10;52.50;;;;;;1936860;73;21063;-79
2022/04/07 10:58:20;;;;;;;37.37;27.87;;;30.00;52.20;;;;;;1919075;74;21210;-80
2022/04/07 11:01:04;;;;;;;30.60;27.40;;;30.00;52.40;;;;;;1884010;76;21409;-80
2022/04/07 11:03:41;;;;;;;35.20;27.62;;;30.00;52.50;;;;;;1857291;77;21150;-79
2022/04/07 11:06:11;;;;;;;35.08;27.98;;;30.00;52.70;;;;;;1865030;75;21212;-80
2022/04/07 11:08:44;;;;;;;31.65;26.62;;;29.90;52.60;;;;;;1861054;76;21065;-81
2022/04/07 11:11:18;;;;;;;33.00;26.90;;;29.90;52.80;;;;;;1939484;74;21150;-81
2022/04/07 11:13:51;;;;;;;34.90;28.32;;;29.90;52.90;;;;;;1927232;72;21114;-81
2022/04/07 11:16:25;;;;;;;45.52;33.02;;;29.90;53.10;;;;;;1931507;72;21189;-80
2022/04/07 11:19:00;;;;;;;41.63;32.15;;;29.90;53.40;;;;;;1930377;74;21649;-80
2022/04/07 11:21:36;;;;;;;40.52;31.02;;;29.90;53.30;;;;;;1934847;74;21128;-79
2022/04/07 11:24:08;;;;;;;32.13;27.95;;;29.80;53.40;;;;;;1930817;73;21180;-80
2022/04/07 11:26:43;;;;;;;38.78;28.50;;;29.80;53.50;;;;;;1926078;74;21100;-78
2022/04/07 11:29:14;;;;;;;32.13;27.93;;;29.70;53.60;;;;;;1924246;74;21576;-80
2022/04/07 11:31:53;;;;;;;34.70;28.75;;;29.70;53.80;;;;;;1940576;73;21134;-79
2022/04/07 11:34:26;;;;;;;37.90;28.60;;;29.70;54.20;;;;;;1934622;73;21175;-79
2022/04/07 11:36:59;;;;;;;36.93;28.35;;;29.70;54.30;;;;;;1928473;73;21251;-82
2022/04/07 11:39:32;;;;;;;33.80;26.70;;;29.60;54.40;;;;;;1938399;73;21225;-79
2022/04/07 11:42:04;;;;;;;38.20;29.05;;;29.60;54.30;;;;;;1938802;73;21217;-81
2022/04/07 11:44:38;;;;;;;40.50;28.00;;;29.60;54.50;;;;;;1939242;73;21091;-81
2022/04/07 11:47:12;;;;;;;40.00;28.42;;;29.60;54.50;;;;;;1928984;73;21452;-81
2022/04/07 11:49:42;;;;;;;38.05;27.85;;;29.50;54.60;;;;;;1933580;73;21037;-80
2022/04/07 11:52:14;;;;;;;36.45;28.05;;;29.50;54.90;;;;;;1931480;73;21079;-80
2022/04/07 11:54:45;;;;;;;36.10;28.32;;;29.50;55.20;;;;;;1930407;74;21138;-83
2022/04/07 11:57:16;;;;;;;36.45;28.40;;;29.50;56.20;;;;;;1938032;73;21559;-82
2022/04/07 11:59:47;;;;;;;36.98;30.00;;;29.50;55.70;;;;;;1934942;73;21105;-79
2022/04/07 12:02:21;;;;;;;38.83;30.35;;;29.50;56.10;;;;;;1932959;73;21092;-82
2022/04/07 12:04:59;;;;;;;42.03;32.88;;;29.40;56.10;;;;;;1926976;72;21088;-80
2022/04/07 12:07:33;;;;;;;39.45;31.48;;;29.40;56.30;;;;;;1773324;78;21227;-80
2022/04/07 12:10:07;;;;;;;39.00;32.03;;;29.40;56.60;;;;;;1772465;79;21126;-81
2022/04/07 12:12:40;;;;;;;43.92;32.05;;;29.40;56.80;;;;;;1773719;79;21204;-81
2022/04/07 12:15:13;;;;;;;39.80;32.30;;;29.30;57.00;;;;;;1771144;79;21133;-82
2022/04/07 12:18:04;;;;;;;55.23;35.25;;;29.30;57.40;;;;;;1748083;81;21188;-80
2022/04/07 12:20:47;;;;;;;45.48;34.60;;;29.30;57.70;;;;;;1769471;79;21390;-81
2022/04/07 12:23:20;;;;;;;43.83;33.48;;;29.30;57.90;;;;;;1742460;81;21118;-83
2022/04/07 12:26:06;;;;;;;44.55;33.90;;;29.30;58.10;;;;;;1771745;79;21353;-79
2022/04/07 12:28:42;;;;;;;42.38;34.50;;;29.20;58.30;;;;;;1743725;81;21753;-81
2022/04/07 12:31:16;;;;;;;40.58;33.08;;;29.20;58.50;;;;;;1776882;79;21169;-82
2022/04/07 12:33:48;;;;;;;42.62;32.93;;;29.10;58.50;;;;;;1739425;77;21173;-82
2022/04/07 12:36:38;;;;;;;45.70;34.67;;;29.20;58.70;;;;;;1772867;79;21188;-81
2022/04/07 12:39:26;;;;;;;44.98;34.30;;;29.10;58.90;;;;;;1719811;78;21217;-80
2022/04/07 12:41:59;;;;;;;45.70;34.50;;;29.10;59.20;;;;;;1775053;79;21125;-81
2022/04/07 12:44:36;;;;;;;49.75;36.40;;;29.10;59.60;;;;;;1744799;81;21101;-81
2022/04/07 12:47:13;;;;;;;45.08;37.33;;;29.10;60.00;;;;;;1768817;75;21206;-80
2022/04/07 12:49:52;;;;;;;51.55;38.17;;;29.00;60.40;;;;;;1817801;73;21765;-81
2022/04/07 12:52:37;;;;;;;49.20;37.88;;;29.00;60.50;;;;;;1825650;77;21112;-79
2022/04/07 12:55:28;;;;;;;56.23;37.53;;;28.90;61.10;;;;;;1846923;77;21636;-80